createdAt,value
2023-01-11T00:00:12.675Z,5.80
2023-01-11T00:02:14.771Z,3.65
2023-01-11T00:04:17.074Z,5.63
2023-01-11T00:06:19.225Z,9.68
2023-01-11T00:08:22.366Z,7.45
2023-01-11T00:10:24.612Z,9.00
2023-01-11T00:12:26.722Z,9.82
2023-01-11T00:14:28.843Z,8.85
2023-01-11T00:16:30.843Z,7.10
2023-01-11T00:18:32.808Z,11.55
2023-01-11T00:20:35.237Z,7.38
2023-01-11T00:22:37.941Z,6.57
2023-01-11T00:24:39.836Z,11.25
2023-01-11T00:26:41.915Z,7.82
2023-01-11T00:28:44.006Z,7.85
2023-01-11T00:30:49.272Z,10.95
2023-01-11T00:32:57.767Z,10.80
2023-01-11T00:34:59.833Z,10.38
2023-01-11T00:37:02.115Z,8.77
2023-01-11T00:39:04.481Z,14.25
2023-01-11T00:41:17.393Z,4.95
2023-01-11T00:43:28.324Z,11.93
2023-01-11T00:45:40.472Z,4.43
2023-01-11T00:47:52.345Z,13.95
2023-01-11T00:49:54.409Z,8.35
2023-01-11T00:51:56.634Z,4.18
2023-01-11T00:53:58.730Z,7.80
2023-01-11T00:56:00.815Z,11.52
2023-01-11T00:58:03.217Z,11.38
2023-01-11T01:00:06.256Z,10.95
2023-01-11T01:02:09.898Z,7.25
2023-01-11T01:04:11.945Z,10.43
2023-01-11T01:06:13.932Z,10.80
2023-01-11T01:08:16.332Z,11.82
2023-01-11T01:10:18.619Z,14.30
2023-01-11T01:12:30.305Z,7.35
2023-01-11T01:14:33.702Z,11.18
2023-01-11T01:16:37.136Z,11.02
2023-01-11T01:18:39.194Z,10.38
2023-01-11T01:20:41.598Z,6.72
2023-01-11T01:22:43.533Z,11.23
2023-01-11T01:24:45.517Z,11.45
2023-01-11T01:26:47.527Z,16.10
2023-01-11T01:28:50.721Z,10.75
2023-01-11T01:30:52.907Z,12.15
2023-01-11T01:32:55.078Z,15.55
2023-01-11T01:34:57.211Z,12.07
2023-01-11T01:36:59.243Z,14.48
2023-01-11T01:39:01.771Z,13.07
2023-01-11T01:41:04.999Z,9.75
2023-01-11T01:43:11.765Z,9.68
2023-01-11T01:45:24.326Z,11.38
2023-01-11T01:47:35.044Z,11.82
2023-01-11T01:51:40.109Z,10.32
2023-01-11T01:53:47.037Z,11.30
2023-01-11T01:55:53.646Z,15.38
2023-01-11T01:57:58.082Z,10.18
2023-01-11T02:00:05.475Z,11.13
2023-01-11T02:02:07.525Z,13.07
2023-01-11T02:04:14.547Z,16.75
2023-01-11T02:06:16.964Z,12.05
2023-01-11T02:08:30.341Z,18.88
2023-01-11T02:10:33.142Z,13.68
2023-01-11T02:12:41.456Z,11.65
2023-01-11T02:14:45.156Z,11.32
2023-01-11T02:16:47.126Z,16.80
2023-01-11T02:18:49.112Z,8.68
2023-01-11T02:21:10.562Z,12.02
2023-01-11T02:23:23.009Z,14.70
2023-01-11T02:25:26.591Z,11.30
2023-01-11T02:27:34.943Z,15.63
2023-01-11T02:29:44.011Z,10.50
2023-01-11T02:32:05.604Z,11.45
2023-01-11T02:34:19.876Z,19.60
2023-01-11T02:36:30.792Z,13.68
2023-01-11T02:38:41.947Z,10.15
2023-01-11T02:40:55.377Z,8.93
2023-01-11T02:43:16.353Z,8.88
2023-01-11T02:45:33.465Z,14.27
2023-01-11T02:47:40.496Z,13.57
2023-01-11T02:49:52.796Z,14.02
2023-01-11T02:52:01.126Z,16.25
2023-01-11T02:54:09.294Z,15.15
2023-01-11T02:56:16.966Z,10.63
2023-01-11T02:58:22.118Z,13.05
2023-01-11T03:00:25.608Z,9.38
2023-01-11T03:02:27.899Z,13.95
2023-01-11T03:04:36.475Z,11.48
2023-01-11T03:06:38.479Z,16.58
2023-01-11T03:08:51.441Z,8.13
2023-01-11T03:10:56.841Z,13.50
2023-01-11T03:13:09.052Z,18.58
2023-01-11T03:15:11.221Z,12.85
2023-01-11T03:17:25.800Z,16.13
2023-01-11T03:19:29.297Z,16.63
2023-01-11T03:21:43.210Z,15.65
2023-01-11T03:23:55.444Z,10.38
2023-01-11T03:26:16.508Z,9.10
2023-01-11T03:28:37.411Z,18.35
2023-01-11T03:32:55.901Z,16.02
2023-01-11T03:35:13.802Z,24.30
2023-01-11T03:37:25.743Z,15.63
2023-01-11T03:39:37.921Z,9.18
2023-01-11T03:41:42.157Z,11.82
2023-01-11T03:43:47.013Z,12.95
2023-01-11T03:45:54.146Z,14.98
2023-01-11T03:48:00.008Z,10.23
2023-01-11T03:50:06.964Z,21.27
2023-01-11T03:52:12.587Z,11.13
2023-01-11T03:54:21.472Z,17.92
2023-01-11T03:56:41.352Z,15.27
2023-01-11T03:58:44.182Z,13.82
2023-01-11T04:00:46.379Z,11.70
2023-01-11T04:02:49.811Z,11.35
2023-01-11T04:04:52.099Z,22.63
2023-01-11T04:06:54.412Z,11.52
2023-01-11T04:08:56.231Z,20.10
2023-01-11T04:10:58.241Z,12.55
2023-01-11T04:12:59.982Z,13.05
2023-01-11T04:15:03.376Z,15.70
2023-01-11T04:17:05.628Z,13.00
2023-01-11T04:19:07.478Z,15.20
2023-01-11T04:21:09.305Z,10.80
2023-01-11T04:23:11.239Z,12.85
2023-01-11T04:25:13.058Z,14.52
2023-01-11T04:27:15.136Z,15.68
2023-01-11T04:29:16.955Z,13.02
2023-01-11T04:31:18.803Z,18.20
2023-01-11T04:33:20.632Z,17.90
2023-01-11T04:35:22.574Z,23.25
2023-01-11T04:37:24.438Z,16.83
2023-01-11T04:39:26.273Z,14.30
2023-01-11T04:41:37.524Z,21.00
2023-01-11T04:43:39.372Z,17.88
2023-01-11T04:45:41.208Z,14.15
2023-01-11T04:47:43.172Z,16.30
2023-01-11T04:49:45.621Z,15.38
2023-01-11T04:51:47.398Z,16.30
2023-01-11T04:53:49.664Z,15.80
2023-01-11T04:55:53.655Z,14.25
2023-01-11T04:57:55.565Z,15.68
2023-01-11T04:59:57.410Z,23.90
2023-01-11T05:01:59.236Z,16.20
2023-01-11T05:04:01.132Z,21.38
2023-01-11T05:06:03.582Z,14.68
2023-01-11T05:08:05.492Z,11.05
2023-01-11T05:10:07.889Z,20.63
2023-01-11T05:12:09.729Z,14.10
2023-01-11T05:14:11.849Z,15.07
2023-01-11T05:16:25.524Z,15.95
2023-01-11T05:18:27.410Z,17.55
2023-01-11T05:20:29.237Z,14.65
2023-01-11T05:22:31.008Z,15.85
2023-01-11T05:24:32.847Z,15.18
2023-01-11T05:26:37.267Z,18.33
2023-01-11T05:28:39.407Z,11.75
2023-01-11T05:30:41.187Z,15.88
2023-01-11T05:32:43.033Z,14.60
2023-01-11T05:34:44.838Z,11.07
2023-01-11T05:36:46.982Z,16.67
2023-01-11T05:38:50.757Z,23.08
2023-01-11T05:40:58.146Z,15.90
2023-01-11T05:42:59.977Z,15.55
2023-01-11T05:45:11.416Z,19.55
2023-01-11T05:47:13.223Z,13.25
2023-01-11T05:49:15.446Z,22.17
2023-01-11T05:51:17.567Z,16.30
2023-01-11T05:53:20.144Z,14.07
2023-01-11T05:55:22.055Z,14.70
2023-01-11T05:57:24.037Z,18.83
2023-01-11T05:59:27.054Z,20.83
2023-01-11T06:01:28.861Z,18.83
2023-01-11T06:03:30.662Z,14.45
2023-01-11T06:05:34.690Z,14.38
2023-01-11T06:07:36.500Z,12.95
2023-01-11T06:09:38.399Z,20.00
2023-01-11T06:11:40.511Z,11.07
2023-01-11T06:13:42.790Z,18.73
2023-01-11T06:15:44.642Z,25.17
2023-01-11T06:17:46.444Z,24.25
2023-01-11T06:19:48.613Z,24.40
2023-01-11T06:21:50.664Z,14.63
2023-01-11T06:23:53.674Z,15.80
2023-01-11T06:25:56.420Z,13.77
2023-01-11T06:28:00.017Z,15.55
2023-01-11T06:30:02.778Z,25.58
2023-01-11T06:32:07.824Z,19.42
2023-01-11T06:34:10.252Z,21.08
2023-01-11T06:36:13.704Z,10.95
2023-01-11T06:38:17.527Z,18.42
2023-01-11T06:40:19.671Z,17.80
2023-01-11T06:42:23.372Z,12.52
2023-01-11T06:44:26.139Z,10.80
2023-01-11T06:46:29.184Z,12.10
2023-01-11T06:48:31.880Z,24.60
2023-01-11T06:50:33.871Z,14.82
2023-01-11T06:52:35.856Z,15.88
2023-01-11T06:54:37.845Z,18.10
2023-01-11T06:56:39.828Z,18.98
2023-01-11T06:58:42.210Z,19.67
2023-01-11T07:00:44.303Z,15.25
2023-01-11T07:02:47.534Z,16.20
2023-01-11T07:04:49.531Z,19.02
2023-01-11T07:06:54.896Z,23.30
2023-01-11T07:08:56.968Z,18.55
2023-01-11T07:10:59.156Z,15.65
2023-01-11T07:13:01.286Z,9.05
2023-01-11T07:15:07.542Z,19.45
2023-01-11T07:17:09.826Z,17.05
2023-01-11T07:19:12.079Z,12.68
2023-01-11T07:21:14.107Z,18.98
2023-01-11T07:23:16.116Z,10.60
2023-01-11T07:25:26.239Z,17.63
2023-01-11T07:27:28.088Z,16.95
2023-01-11T07:29:32.645Z,21.90
2023-01-11T07:31:52.192Z,15.55
2023-01-11T07:33:55.317Z,18.23
2023-01-11T07:35:58.838Z,15.13
2023-01-11T07:38:14.687Z,18.15
2023-01-11T07:40:23.567Z,16.67
2023-01-11T07:42:36.024Z,12.55
2023-01-11T07:44:37.875Z,18.23
2023-01-11T07:46:39.619Z,15.50
2023-01-11T07:48:42.453Z,17.00
2023-01-11T07:50:45.257Z,14.77
2023-01-11T07:52:58.395Z,24.48
2023-01-11T07:55:02.864Z,15.30
2023-01-11T07:57:18.026Z,15.38
2023-01-11T07:59:22.928Z,19.95
2023-01-11T08:01:26.843Z,25.48
2023-01-11T08:03:32.140Z,15.23
2023-01-11T08:06:01.491Z,18.80
2023-01-11T08:08:09.506Z,13.43
2023-01-11T08:10:12.266Z,17.95
2023-01-11T08:12:38.942Z,14.82
2023-01-11T08:14:43.401Z,17.02
2023-01-11T08:16:48.607Z,14.88
2023-01-11T08:18:56.718Z,11.43
2023-01-11T08:21:06.430Z,25.88
2023-01-11T08:23:16.158Z,18.40
2023-01-11T08:25:18.108Z,15.10
2023-01-11T08:27:20.553Z,11.18
2023-01-11T08:29:26.849Z,16.15
2023-01-11T08:31:34.542Z,10.63
2023-01-11T08:33:36.319Z,17.55
2023-01-11T08:35:47.068Z,14.18
2023-01-11T08:38:03.630Z,9.68
2023-01-11T08:40:37.502Z,9.25
2023-01-11T08:42:55.939Z,12.73
2023-01-11T08:44:58.978Z,7.82
2023-01-11T08:47:01.594Z,12.93
2023-01-11T08:49:05.725Z,12.13
2023-01-11T08:51:07.818Z,10.93
2023-01-11T08:53:10.951Z,10.20
2023-01-11T08:55:14.176Z,19.25
2023-01-11T08:57:27.713Z,13.55
2023-01-11T08:59:31.340Z,16.40
2023-01-11T09:01:48.802Z,16.33
2023-01-11T09:03:54.820Z,16.70
2023-01-11T09:05:57.084Z,12.35
2023-01-11T09:07:59.896Z,13.60
2023-01-11T09:10:04.428Z,17.63
2023-01-11T09:12:06.566Z,13.65
2023-01-11T09:14:08.407Z,16.65
2023-01-11T09:16:10.178Z,13.93
2023-01-11T09:18:18.440Z,27.48
2023-01-11T09:20:22.449Z,14.63
2023-01-11T09:22:26.256Z,17.35
2023-01-11T09:24:29.167Z,15.43
2023-01-11T09:26:34.554Z,12.93
2023-01-11T09:28:43.315Z,14.50
2023-01-11T09:30:44.962Z,17.27
2023-01-11T09:33:03.583Z,19.58
2023-01-11T09:35:06.364Z,16.35
2023-01-11T09:37:16.275Z,14.18
2023-01-11T09:39:24.614Z,18.30
2023-01-11T09:41:36.536Z,22.67
2023-01-11T09:44:04.721Z,16.83
2023-01-11T09:46:29.514Z,17.30
2023-01-11T09:48:43.499Z,16.52
2023-01-11T09:50:48.711Z,17.27
2023-01-11T09:53:09.910Z,17.90
2023-01-11T09:55:25.243Z,9.63
2023-01-11T09:57:50.303Z,16.02
2023-01-11T10:00:20.251Z,14.02
2023-01-11T10:02:50.005Z,11.32
2023-01-11T10:05:33.914Z,13.43
2023-01-11T10:18:34.253Z,15.27
2023-01-11T10:21:45.185Z,13.57
2023-01-11T10:24:13.155Z,9.00
2023-01-11T10:26:32.470Z,18.63
2023-01-11T10:29:37.309Z,9.90
2023-01-11T10:31:56.640Z,13.82
2023-01-11T10:34:23.264Z,19.55
2023-01-11T10:37:13.630Z,10.38
2023-01-11T10:39:47.907Z,15.83
2023-01-11T10:42:24.218Z,9.65
2023-01-11T10:44:57.418Z,14.70
2023-01-11T10:47:06.899Z,15.13
2023-01-11T10:51:49.425Z,10.45
2023-01-11T10:53:57.419Z,13.25
2023-01-11T10:56:16.357Z,17.85
2023-01-11T10:58:46.272Z,13.18
2023-01-11T11:01:46.006Z,8.00
2023-01-11T11:06:50.561Z,8.25
2023-01-11T11:11:36.050Z,9.48
2023-01-11T11:14:14.602Z,15.10
2023-01-11T11:16:30.102Z,13.48
2023-01-11T11:18:32.409Z,6.55
2023-01-11T11:20:35.451Z,16.33
2023-01-11T11:22:37.484Z,9.02
2023-01-11T11:24:48.248Z,13.02
2023-01-11T11:27:00.287Z,8.82
2023-01-11T11:29:06.873Z,8.80
2023-01-11T11:31:09.930Z,11.70
2023-01-11T11:33:23.458Z,8.10
2023-01-11T11:35:38.789Z,12.15
2023-01-11T11:37:44.627Z,15.35
2023-01-11T11:39:49.373Z,12.70
2023-01-11T11:41:54.138Z,6.53
2023-01-11T11:44:15.373Z,10.73
2023-01-11T11:46:23.412Z,10.20
2023-01-11T11:48:27.715Z,9.80
2023-01-11T11:50:44.846Z,7.93
2023-01-11T11:52:52.365Z,8.82
2023-01-11T11:54:58.383Z,8.88
2023-01-11T11:57:14.918Z,10.27
2023-01-11T11:59:21.206Z,7.10
2023-01-11T12:01:35.101Z,8.77
2023-01-11T12:03:37.344Z,8.07
2023-01-11T12:05:57.774Z,10.98
2023-01-11T12:08:02.926Z,12.38
2023-01-11T12:10:12.312Z,7.70
2023-01-11T12:12:17.603Z,8.30
2023-01-11T12:14:25.986Z,5.90
2023-01-11T12:16:34.970Z,5.65
2023-01-11T12:18:41.614Z,9.85
2023-01-11T12:20:45.372Z,9.75
2023-01-11T12:22:48.675Z,10.27
2023-01-11T12:25:09.609Z,7.90
2023-01-11T12:27:32.798Z,7.65
2023-01-11T12:29:46.854Z,10.88
2023-01-11T12:32:03.531Z,8.65
2023-01-11T12:34:18.033Z,7.60
2023-01-11T12:36:29.924Z,6.22
2023-01-11T12:38:54.053Z,8.23
2023-01-11T12:41:02.054Z,12.80
2023-01-11T12:43:14.630Z,9.15
2023-01-11T12:45:31.331Z,13.10
2023-01-11T12:47:52.814Z,5.85
2023-01-11T12:50:13.695Z,6.88
2023-01-11T12:54:54.057Z,8.63
2023-01-11T12:57:15.724Z,8.15
2023-01-11T12:59:30.414Z,8.23
2023-01-11T13:01:49.694Z,13.15
2023-01-11T13:03:55.515Z,8.30
2023-01-11T13:06:10.708Z,8.27
2023-01-11T13:08:17.075Z,13.32
2023-01-11T13:10:36.959Z,14.77
2023-01-11T13:12:56.579Z,12.20
2023-01-11T13:15:07.112Z,15.20
2023-01-11T13:17:29.072Z,17.92
2023-01-11T13:19:46.438Z,10.20
2023-01-11T13:21:53.637Z,12.70
2023-01-11T13:24:02.597Z,8.32
2023-01-11T13:26:23.613Z,10.15
2023-01-11T13:28:33.859Z,9.40
2023-01-11T13:30:36.412Z,10.32
2023-01-11T13:32:41.677Z,14.38
2023-01-11T13:34:51.765Z,12.55
2023-01-11T13:37:06.608Z,9.07
2023-01-11T13:39:28.809Z,10.95
2023-01-11T13:41:38.394Z,11.77
2023-01-11T13:43:46.148Z,15.82
2023-01-11T13:45:55.948Z,10.93
2023-01-11T13:48:06.302Z,8.75
2023-01-11T13:50:12.798Z,9.52
2023-01-11T13:52:17.938Z,11.38
2023-01-11T13:54:33.617Z,6.72
2023-01-11T13:56:42.255Z,10.23
2023-01-11T13:58:56.362Z,10.00
2023-01-11T14:01:11.603Z,8.38
2023-01-11T14:03:29.375Z,5.68
2023-01-11T14:05:45.227Z,7.75
2023-01-11T14:08:02.051Z,7.03
2023-01-11T14:10:21.596Z,2.17
2023-01-11T14:12:43.246Z,4.68
2023-01-11T14:15:04.763Z,4.47
2023-01-11T14:17:16.669Z,4.35
2023-01-11T14:19:34.077Z,4.70
2023-01-11T14:21:57.723Z,6.80
2023-01-11T14:24:02.178Z,4.15
2023-01-11T14:26:07.594Z,6.20
2023-01-11T14:28:28.388Z,3.10
2023-01-11T14:30:38.797Z,2.13
2023-01-11T14:32:49.950Z,4.88
2023-01-11T14:35:04.541Z,3.88
2023-01-11T14:37:14.255Z,5.18
2023-01-11T14:39:25.577Z,3.40
2023-01-11T14:41:37.906Z,5.65
2023-01-11T14:43:49.612Z,1.52
2023-01-11T14:46:11.388Z,2.45
2023-01-11T14:48:27.399Z,3.17
2023-01-11T14:50:45.182Z,7.35
2023-01-11T14:52:51.393Z,3.60
2023-01-11T14:54:55.454Z,5.32
2023-01-11T14:56:59.270Z,4.07
2023-01-11T14:59:05.471Z,8.63
2023-01-11T15:01:11.320Z,7.82
2023-01-11T15:03:18.313Z,8.63
2023-01-11T15:05:29.914Z,10.95
2023-01-11T15:07:32.240Z,5.05
2023-01-11T15:09:45.437Z,5.05
2023-01-11T15:11:47.475Z,8.25
2023-01-11T15:13:57.590Z,8.52
2023-01-11T15:16:28.353Z,10.52
2023-01-11T15:18:30.694Z,8.50
2023-01-11T15:20:34.187Z,10.75
2023-01-11T15:22:36.703Z,10.10
2023-01-11T15:24:44.110Z,5.50
2023-01-11T15:26:49.738Z,9.68
2023-01-11T15:28:58.217Z,13.18
2023-01-11T15:31:04.452Z,13.38
2023-01-11T15:33:19.107Z,12.20
2023-01-11T15:35:31.890Z,14.15
2023-01-11T15:37:37.915Z,10.75
2023-01-11T15:39:49.528Z,17.73
2023-01-11T15:42:17.910Z,16.15
2023-01-11T15:44:33.299Z,19.50
2023-01-11T15:46:55.427Z,18.20
2023-01-11T15:49:14.500Z,20.95
2023-01-11T15:51:35.498Z,19.00
2023-01-11T15:55:52.233Z,17.83
2023-01-11T16:02:17.966Z,17.38
2023-01-11T16:04:27.403Z,14.90
2023-01-11T16:06:36.752Z,20.95
2023-01-11T16:08:53.557Z,25.15
2023-01-11T16:11:08.142Z,16.88
2023-01-11T16:13:20.073Z,8.25
2023-01-11T16:15:28.419Z,5.20
2023-01-11T16:17:30.896Z,7.75
2023-01-11T16:19:36.059Z,4.50
2023-01-11T16:21:41.106Z,3.60
2023-01-11T16:23:43.328Z,3.65
2023-01-11T16:25:46.718Z,4.05
2023-01-11T16:27:54.219Z,4.55
2023-01-11T16:29:56.723Z,3.45
2023-01-11T16:32:01.652Z,7.50
2023-01-11T16:34:07.684Z,7.07
2023-01-11T16:36:13.987Z,3.20
2023-01-11T16:38:21.890Z,6.40
2023-01-11T16:40:30.774Z,8.40
2023-01-11T16:42:39.393Z,2.80
2023-01-11T16:44:54.080Z,4.40
2023-01-11T16:47:07.684Z,8.98
2023-01-11T16:49:10.564Z,5.07
2023-01-11T16:51:16.685Z,3.65
2023-01-11T16:53:20.277Z,6.68
2023-01-11T16:55:30.180Z,3.10
2023-01-11T16:57:40.694Z,4.68
2023-01-11T16:59:42.775Z,8.00
2023-01-11T17:01:53.355Z,3.75
2023-01-11T17:03:55.443Z,4.35
2023-01-11T17:05:58.933Z,8.23
2023-01-11T17:08:01.063Z,3.60
2023-01-11T17:10:15.886Z,5.47
2023-01-11T17:12:24.484Z,3.60
2023-01-11T17:14:43.043Z,6.18
2023-01-11T17:16:50.937Z,4.85
2023-01-11T17:18:54.793Z,4.13
2023-01-11T17:20:56.939Z,4.60
2023-01-11T17:22:59.795Z,5.80
2023-01-11T17:25:05.677Z,6.57
2023-01-11T17:27:16.293Z,4.22
2023-01-11T17:29:37.494Z,5.72
2023-01-11T17:31:40.467Z,7.55
2023-01-11T17:33:42.931Z,10.15
2023-01-11T17:35:45.622Z,5.50
2023-01-11T17:37:51.776Z,6.13
2023-01-11T17:39:54.174Z,8.95
2023-01-11T17:42:08.594Z,9.65
2023-01-11T17:44:35.466Z,4.05
2023-01-11T17:46:40.309Z,9.25
2023-01-11T17:48:55.127Z,9.40
2023-01-11T17:50:59.695Z,9.57
2023-01-11T17:53:06.212Z,6.60
2023-01-11T17:55:19.369Z,12.85
2023-01-11T17:57:21.464Z,8.82
2023-01-11T17:59:26.693Z,11.40
2023-01-11T18:01:28.942Z,11.38
2023-01-11T18:03:39.183Z,9.98
2023-01-11T18:05:42.757Z,10.93
2023-01-11T18:07:51.114Z,12.32
2023-01-11T18:10:01.548Z,9.25
2023-01-11T18:12:12.158Z,8.63
2023-01-11T18:14:25.557Z,7.10
2023-01-11T18:16:28.152Z,8.52
2023-01-11T18:18:42.280Z,6.05
2023-01-11T18:20:44.731Z,7.18
2023-01-11T18:23:04.588Z,9.35
2023-01-11T18:25:19.557Z,8.75
2023-01-11T18:27:26.247Z,9.20
2023-01-11T18:29:37.871Z,11.27
2023-01-11T18:31:39.934Z,7.30
2023-01-11T18:33:42.024Z,6.50
2023-01-11T18:35:45.595Z,8.32
2023-01-11T18:37:47.563Z,11.32
2023-01-11T18:39:51.260Z,9.38
2023-01-11T18:42:04.493Z,7.00
2023-01-11T18:44:07.738Z,7.38
2023-01-11T18:46:09.809Z,6.30
2023-01-11T18:48:13.339Z,13.80
2023-01-11T18:50:16.957Z,10.43
2023-01-11T18:52:22.044Z,9.80
2023-01-11T18:54:24.117Z,14.85
2023-01-11T18:56:26.120Z,7.50
2023-01-11T18:58:28.157Z,14.23
2023-01-11T19:00:30.132Z,12.60
2023-01-11T19:02:42.535Z,6.70
2023-01-11T19:06:48.114Z,15.13
2023-01-11T19:08:50.121Z,16.65
2023-01-11T19:10:52.670Z,13.07
2023-01-11T19:12:54.613Z,8.45
2023-01-11T19:14:56.654Z,13.27
2023-01-11T19:16:58.692Z,12.32
2023-01-11T19:19:00.738Z,11.60
2023-01-11T19:21:06.693Z,11.77
2023-01-11T19:23:09.209Z,18.60
2023-01-11T19:25:12.358Z,17.75
2023-01-11T19:27:14.491Z,15.13
2023-01-11T19:29:18.929Z,22.20
2023-01-11T19:31:20.988Z,13.57
2023-01-11T19:33:24.211Z,13.70
2023-01-11T19:35:26.152Z,18.10
2023-01-11T19:37:30.204Z,16.95
2023-01-11T19:39:32.099Z,13.50
2023-01-11T19:41:54.260Z,19.70
2023-01-11T19:43:56.152Z,17.40
2023-01-11T19:45:58.778Z,16.65
2023-01-11T19:48:00.855Z,12.00
2023-01-11T19:50:02.927Z,14.90
2023-01-11T19:52:12.398Z,24.00
2023-01-11T19:54:16.178Z,17.83
2023-01-11T19:56:18.068Z,13.32
2023-01-11T19:58:19.928Z,15.57
2023-01-11T20:00:21.984Z,14.20
2023-01-11T20:02:24.645Z,19.58
2023-01-11T20:04:27.043Z,16.98
2023-01-11T20:06:29.055Z,18.50
2023-01-11T20:08:30.868Z,17.85
2023-01-11T20:10:33.012Z,17.45
2023-01-11T20:12:35.652Z,15.60
2023-01-11T20:14:39.753Z,17.73
2023-01-11T20:16:41.898Z,13.95
2023-01-11T20:18:44.243Z,18.08
2023-01-11T20:20:55.743Z,12.63
2023-01-11T20:22:57.618Z,14.10
2023-01-11T20:25:00.630Z,16.98
2023-01-11T20:27:03.582Z,19.60
2023-01-11T20:29:06.647Z,14.43
2023-01-11T20:31:08.492Z,14.25
2023-01-11T20:33:10.454Z,18.60
2023-01-11T20:35:12.607Z,20.52
2023-01-11T20:37:15.288Z,14.50
2023-01-11T20:39:17.649Z,20.17
2023-01-11T20:41:32.362Z,17.13
2023-01-11T20:43:37.237Z,17.17
2023-01-11T20:45:39.880Z,13.32
2023-01-11T20:47:41.878Z,15.23
2023-01-11T20:49:43.827Z,16.50
2023-01-11T20:51:46.912Z,17.80
2023-01-11T20:53:48.732Z,16.23
2023-01-11T20:55:50.592Z,15.48
2023-01-11T20:57:52.687Z,15.88
2023-01-11T20:59:54.675Z,13.38
2023-01-11T21:01:56.534Z,26.48
2023-01-11T21:04:02.182Z,22.75
2023-01-11T21:06:06.349Z,23.88
2023-01-11T21:08:08.317Z,17.83
2023-01-11T21:10:11.272Z,17.88
2023-01-11T21:12:13.357Z,15.98
2023-01-11T21:14:15.206Z,13.05
2023-01-11T21:16:17.419Z,24.10
2023-01-11T21:18:19.405Z,20.58
2023-01-11T21:20:21.346Z,23.75
2023-01-11T21:22:23.279Z,23.90
2023-01-11T21:24:25.267Z,19.77
2023-01-11T21:26:29.501Z,23.17
2023-01-11T21:30:33.762Z,26.92
2023-01-11T21:32:35.727Z,25.33
2023-01-11T21:34:37.687Z,23.30
2023-01-11T21:36:40.546Z,25.35
2023-01-11T21:38:42.983Z,23.40
2023-01-11T21:40:44.827Z,25.75
2023-01-11T21:42:46.791Z,20.00
2023-01-11T21:44:48.831Z,25.45
2023-01-11T21:46:50.989Z,22.90
2023-01-11T21:48:52.928Z,15.75
2023-01-11T21:50:54.916Z,26.10
2023-01-11T21:52:56.880Z,21.75
2023-01-11T21:54:58.743Z,22.58
2023-01-11T21:57:00.785Z,24.80
2023-01-11T21:59:03.073Z,21.13
2023-01-11T22:01:13.646Z,26.00
2023-01-11T22:03:15.793Z,25.58
2023-01-11T22:05:17.684Z,23.30
2023-01-11T22:07:19.623Z,19.90
2023-01-11T22:09:22.242Z,22.20
2023-01-11T22:11:24.029Z,18.05
2023-01-11T22:13:28.541Z,23.17
2023-01-11T22:15:30.461Z,19.17
2023-01-11T22:17:32.447Z,15.38
2023-01-11T22:19:34.280Z,17.70
2023-01-11T22:21:37.795Z,23.45
2023-01-11T22:23:40.680Z,20.23
2023-01-11T22:25:42.676Z,20.13
2023-01-11T22:27:44.497Z,17.90
2023-01-11T22:29:48.157Z,18.77
2023-01-11T22:31:54.912Z,22.38
2023-01-11T22:33:57.954Z,15.15
2023-01-11T22:35:59.747Z,11.43
2023-01-11T22:38:01.628Z,14.52
2023-01-11T22:40:03.467Z,12.05
2023-01-11T22:42:05.542Z,13.07
2023-01-11T22:44:08.539Z,17.77
2023-01-11T22:46:16.617Z,17.85
2023-01-11T22:48:18.545Z,17.80
2023-01-11T22:50:20.813Z,18.65
2023-01-11T22:52:22.682Z,14.18
2023-01-11T22:54:24.600Z,16.27
2023-01-11T22:56:29.534Z,12.45
2023-01-11T22:58:31.427Z,11.40
2023-01-11T23:00:33.384Z,14.10
2023-01-11T23:02:35.208Z,21.15
2023-01-11T23:04:37.110Z,17.92
2023-01-11T23:06:40.878Z,17.48
2023-01-11T23:08:43.636Z,21.33
2023-01-11T23:10:45.438Z,19.02
2023-01-11T23:12:57.249Z,17.25
2023-01-11T23:14:59.105Z,18.55
2023-01-11T23:17:06.053Z,19.23
2023-01-11T23:19:09.194Z,15.90
2023-01-11T23:21:11.086Z,14.10
2023-01-11T23:23:12.959Z,20.20
2023-01-11T23:25:15.022Z,24.67
2023-01-11T23:27:16.815Z,22.17
2023-01-11T23:29:18.638Z,20.25
2023-01-11T23:31:22.739Z,23.27
2023-01-11T23:33:24.793Z,16.00
2023-01-11T23:35:26.625Z,18.20
2023-01-11T23:37:28.478Z,25.27
2023-01-11T23:39:30.772Z,21.25
2023-01-11T23:41:42.319Z,24.10
2023-01-11T23:43:44.083Z,24.35
2023-01-11T23:45:45.939Z,21.10
2023-01-11T23:47:49.509Z,18.10
2023-01-11T23:49:53.697Z,29.80
2023-01-11T23:51:56.411Z,21.08
2023-01-11T23:53:58.462Z,29.17
2023-01-11T23:56:00.283Z,29.85
2023-01-11T23:58:09.102Z,27.42
